sensor_id;sensor_type;location;lat;lon;timestamp;P1;durP1;ratioP1;P2;durP2;ratioP2
33266;SDS011;19638;49.080;11.896;2023-05-29T00:01:27;6.97;;;4.22;;
33266;SDS011;19638;49.080;11.896;2023-05-29T00:05:34;10.65;;;3.97;;
33266;SDS011;19638;49.080;11.896;2023-05-29T00:09:40;7.78;;;4.05;;
33266;SDS011;19638;49.080;11.896;2023-05-29T00:13:43;12.02;;;4.20;;
33266;SDS011;19638;49.080;11.896;2023-05-29T00:17:46;6.80;;;4.13;;
33266;SDS011;19638;49.080;11.896;2023-05-29T00:21:54;6.90;;;3.88;;
33266;SDS011;19638;49.080;11.896;2023-05-29T00:26:00;8.13;;;4.32;;
33266;SDS011;19638;49.080;11.896;2023-05-29T00:30:07;10.82;;;5.00;;
33266;SDS011;19638;49.080;11.896;2023-05-29T00:34:11;6.60;;;4.35;;
33266;SDS011;19638;49.080;11.896;2023-05-29T00:38:16;7.68;;;4.20;;
33266;SDS011;19638;49.080;11.896;2023-05-29T00:42:19;7.38;;;4.15;;
33266;SDS011;19638;49.080;11.896;2023-05-29T00:46:22;8.38;;;4.30;;
33266;SDS011;19638;49.080;11.896;2023-05-29T00:50:28;7.93;;;4.43;;
33266;SDS011;19638;49.080;11.896;2023-05-29T00:54:32;9.13;;;4.50;;
33266;SDS011;19638;49.080;11.896;2023-05-29T00:58:36;9.63;;;5.05;;
33266;SDS011;19638;49.080;11.896;2023-05-29T01:02:39;5.50;;;4.13;;
33266;SDS011;19638;49.080;11.896;2023-05-29T01:06:48;9.45;;;4.38;;
33266;SDS011;19638;49.080;11.896;2023-05-29T01:10:53;8.38;;;4.35;;
33266;SDS011;19638;49.080;11.896;2023-05-29T01:15:02;6.43;;;4.15;;
33266;SDS011;19638;49.080;11.896;2023-05-29T01:19:18;8.48;;;4.00;;
33266;SDS011;19638;49.080;11.896;2023-05-29T01:23:38;6.78;;;4.35;;
33266;SDS011;19638;49.080;11.896;2023-05-29T01:27:55;6.97;;;4.03;;
33266;SDS011;19638;49.080;11.896;2023-05-29T01:32:03;8.25;;;4.80;;
33266;SDS011;19638;49.080;11.896;2023-05-29T01:36:07;10.17;;;4.43;;
33266;SDS011;19638;49.080;11.896;2023-05-29T01:40:13;9.40;;;4.38;;
33266;SDS011;19638;49.080;11.896;2023-05-29T01:44:21;14.15;;;5.15;;
33266;SDS011;19638;49.080;11.896;2023-05-29T01:48:26;11.10;;;3.78;;
33266;SDS011;19638;49.080;11.896;2023-05-29T01:52:32;9.52;;;4.07;;
33266;SDS011;19638;49.080;11.896;2023-05-29T01:56:35;9.07;;;4.00;;
33266;SDS011;19638;49.080;11.896;2023-05-29T02:00:46;9.32;;;4.20;;
33266;SDS011;19638;49.080;11.896;2023-05-29T02:04:58;6.88;;;3.88;;
33266;SDS011;19638;49.080;11.896;2023-05-29T02:09:02;6.60;;;3.63;;
33266;SDS011;19638;49.080;11.896;2023-05-29T02:13:12;9.77;;;4.00;;
33266;SDS011;19638;49.080;11.896;2023-05-29T02:17:17;8.85;;;4.10;;
33266;SDS011;19638;49.080;11.896;2023-05-29T02:21:21;9.90;;;4.35;;
33266;SDS011;19638;49.080;11.896;2023-05-29T02:25:27;11.48;;;4.07;;
33266;SDS011;19638;49.080;11.896;2023-05-29T02:29:32;7.90;;;4.22;;
33266;SDS011;19638;49.080;11.896;2023-05-29T02:33:37;7.70;;;4.03;;
33266;SDS011;19638;49.080;11.896;2023-05-29T02:37:40;10.23;;;3.83;;
33266;SDS011;19638;49.080;11.896;2023-05-29T02:41:44;7.80;;;4.53;;
33266;SDS011;19638;49.080;11.896;2023-05-29T02:45:47;5.03;;;3.67;;
33266;SDS011;19638;49.080;11.896;2023-05-29T02:49:51;10.60;;;4.50;;
33266;SDS011;19638;49.080;11.896;2023-05-29T02:53:54;11.43;;;4.70;;
33266;SDS011;19638;49.080;11.896;2023-05-29T02:58:02;8.57;;;4.60;;
33266;SDS011;19638;49.080;11.896;2023-05-29T03:02:18;6.60;;;3.85;;
33266;SDS011;19638;49.080;11.896;2023-05-29T03:07:06;11.98;;;4.75;;
33266;SDS011;19638;49.080;11.896;2023-05-29T03:11:11;10.65;;;4.20;;
33266;SDS011;19638;49.080;11.896;2023-05-29T03:15:16;8.27;;;4.60;;
33266;SDS011;19638;49.080;11.896;2023-05-29T03:19:27;6.80;;;4.22;;
33266;SDS011;19638;49.080;11.896;2023-05-29T03:23:32;9.40;;;4.22;;
33266;SDS011;19638;49.080;11.896;2023-05-29T03:27:37;10.07;;;4.40;;
33266;SDS011;19638;49.080;11.896;2023-05-29T03:31:40;7.23;;;4.13;;
33266;SDS011;19638;49.080;11.896;2023-05-29T03:35:46;7.60;;;4.67;;
33266;SDS011;19638;49.080;11.896;2023-05-29T03:39:50;10.83;;;4.83;;
33266;SDS011;19638;49.080;11.896;2023-05-29T03:43:56;9.83;;;4.50;;
33266;SDS011;19638;49.080;11.896;2023-05-29T03:48:02;7.30;;;3.97;;
33266;SDS011;19638;49.080;11.896;2023-05-29T03:52:05;10.10;;;4.60;;
33266;SDS011;19638;49.080;11.896;2023-05-29T03:56:10;13.63;;;4.20;;
33266;SDS011;19638;49.080;11.896;2023-05-29T04:00:13;8.50;;;5.03;;
33266;SDS011;19638;49.080;11.896;2023-05-29T04:04:19;9.50;;;4.00;;
33266;SDS011;19638;49.080;11.896;2023-05-29T04:08:23;7.40;;;4.30;;
33266;SDS011;19638;49.080;11.896;2023-05-29T04:12:28;9.43;;;4.18;;
33266;SDS011;19638;49.080;11.896;2023-05-29T04:16:31;9.20;;;4.00;;
33266;SDS011;19638;49.080;11.896;2023-05-29T04:20:37;5.05;;;4.00;;
33266;SDS011;19638;49.080;11.896;2023-05-29T04:24:43;8.73;;;3.70;;
33266;SDS011;19638;49.080;11.896;2023-05-29T04:28:52;10.25;;;4.47;;
33266;SDS011;19638;49.080;11.896;2023-05-29T04:32:59;10.88;;;4.63;;
33266;SDS011;19638;49.080;11.896;2023-05-29T04:37:07;6.40;;;3.83;;
33266;SDS011;19638;49.080;11.896;2023-05-29T04:41:15;8.60;;;4.53;;
33266;SDS011;19638;49.080;11.896;2023-05-29T04:45:20;6.72;;;3.70;;
33266;SDS011;19638;49.080;11.896;2023-05-29T04:49:26;9.13;;;4.53;;
33266;SDS011;19638;49.080;11.896;2023-05-29T04:53:32;7.45;;;4.00;;
33266;SDS011;19638;49.080;11.896;2023-05-29T04:57:36;8.68;;;4.30;;
33266;SDS011;19638;49.080;11.896;2023-05-29T05:01:47;10.85;;;4.20;;
33266;SDS011;19638;49.080;11.896;2023-05-29T05:05:53;8.35;;;4.28;;
33266;SDS011;19638;49.080;11.896;2023-05-29T05:09:56;8.43;;;3.97;;
33266;SDS011;19638;49.080;11.896;2023-05-29T05:13:59;10.88;;;3.95;;
33266;SDS011;19638;49.080;11.896;2023-05-29T05:18:03;7.43;;;3.58;;
33266;SDS011;19638;49.080;11.896;2023-05-29T05:22:07;8.38;;;3.90;;
33266;SDS011;19638;49.080;11.896;2023-05-29T05:26:16;6.47;;;3.45;;
33266;SDS011;19638;49.080;11.896;2023-05-29T05:30:23;7.82;;;3.63;;
33266;SDS011;19638;49.080;11.896;2023-05-29T05:34:30;4.90;;;3.50;;
33266;SDS011;19638;49.080;11.896;2023-05-29T05:38:33;9.20;;;3.72;;
33266;SDS011;19638;49.080;11.896;2023-05-29T05:42:38;8.10;;;3.58;;
33266;SDS011;19638;49.080;11.896;2023-05-29T05:46:42;8.02;;;4.00;;
33266;SDS011;19638;49.080;11.896;2023-05-29T05:50:48;7.43;;;4.05;;
33266;SDS011;19638;49.080;11.896;2023-05-29T05:54:51;8.25;;;3.88;;
33266;SDS011;19638;49.080;11.896;2023-05-29T05:58:56;7.22;;;3.67;;
33266;SDS011;19638;49.080;11.896;2023-05-29T06:03:01;8.23;;;3.95;;
33266;SDS011;19638;49.080;11.896;2023-05-29T06:07:07;5.30;;;3.63;;
33266;SDS011;19638;49.080;11.896;2023-05-29T06:11:11;9.43;;;3.33;;
33266;SDS011;19638;49.080;11.896;2023-05-29T06:15:14;6.75;;;3.90;;
33266;SDS011;19638;49.080;11.896;2023-05-29T06:19:24;5.05;;;3.30;;
33266;SDS011;19638;49.080;11.896;2023-05-29T06:23:34;7.68;;;3.92;;
33266;SDS011;19638;49.080;11.896;2023-05-29T06:27:38;5.65;;;3.40;;
33266;SDS011;19638;49.080;11.896;2023-05-29T06:31:41;8.73;;;3.65;;
33266;SDS011;19638;49.080;11.896;2023-05-29T06:35:50;5.88;;;3.47;;
33266;SDS011;19638;49.080;11.896;2023-05-29T06:39:55;9.35;;;4.00;;
33266;SDS011;19638;49.080;11.896;2023-05-29T06:43:58;6.53;;;3.60;;
33266;SDS011;19638;49.080;11.896;2023-05-29T06:48:02;5.45;;;3.85;;
33266;SDS011;19638;49.080;11.896;2023-05-29T06:52:05;4.63;;;3.75;;
33266;SDS011;19638;49.080;11.896;2023-05-29T06:56:11;7.60;;;4.22;;
33266;SDS011;19638;49.080;11.896;2023-05-29T07:00:17;7.25;;;3.63;;
33266;SDS011;19638;49.080;11.896;2023-05-29T07:04:22;7.28;;;3.47;;
33266;SDS011;19638;49.080;11.896;2023-05-29T07:08:27;7.13;;;3.88;;
33266;SDS011;19638;49.080;11.896;2023-05-29T07:12:31;5.15;;;3.20;;
33266;SDS011;19638;49.080;11.896;2023-05-29T07:16:45;13.48;;;4.07;;
33266;SDS011;19638;49.080;11.896;2023-05-29T07:20:59;8.63;;;4.10;;
33266;SDS011;19638;49.080;11.896;2023-05-29T07:25:03;7.63;;;4.10;;
33266;SDS011;19638;49.080;11.896;2023-05-29T07:29:08;7.15;;;3.55;;
33266;SDS011;19638;49.080;11.896;2023-05-29T07:33:12;11.05;;;5.25;;
33266;SDS011;19638;49.080;11.896;2023-05-29T07:37:15;11.63;;;4.45;;
33266;SDS011;19638;49.080;11.896;2023-05-29T07:41:21;12.32;;;5.13;;
33266;SDS011;19638;49.080;11.896;2023-05-29T07:45:28;9.80;;;4.55;;
33266;SDS011;19638;49.080;11.896;2023-05-29T07:49:33;5.18;;;3.38;;
33266;SDS011;19638;49.080;11.896;2023-05-29T07:53:37;6.40;;;3.53;;
33266;SDS011;19638;49.080;11.896;2023-05-29T07:57:41;6.57;;;3.60;;
33266;SDS011;19638;49.080;11.896;2023-05-29T08:01:54;7.93;;;3.45;;
33266;SDS011;19638;49.080;11.896;2023-05-29T08:06:05;7.20;;;3.60;;
33266;SDS011;19638;49.080;11.896;2023-05-29T08:10:12;5.75;;;3.20;;
33266;SDS011;19638;49.080;11.896;2023-05-29T08:14:16;8.93;;;3.63;;
33266;SDS011;19638;49.080;11.896;2023-05-29T08:18:21;5.50;;;3.78;;
33266;SDS011;19638;49.080;11.896;2023-05-29T08:22:27;6.25;;;3.40;;
33266;SDS011;19638;49.080;11.896;2023-05-29T08:26:32;7.32;;;3.40;;
33266;SDS011;19638;49.080;11.896;2023-05-29T08:30:40;8.68;;;3.58;;
33266;SDS011;19638;49.080;11.896;2023-05-29T08:34:46;6.13;;;3.53;;
33266;SDS011;19638;49.080;11.896;2023-05-29T08:38:51;7.80;;;3.58;;
33266;SDS011;19638;49.080;11.896;2023-05-29T08:42:59;10.93;;;3.30;;
33266;SDS011;19638;49.080;11.896;2023-05-29T08:47:06;5.72;;;3.95;;
33266;SDS011;19638;49.080;11.896;2023-05-29T08:51:17;5.22;;;3.30;;
33266;SDS011;19638;49.080;11.896;2023-05-29T08:55:22;4.72;;;3.50;;
33266;SDS011;19638;49.080;11.896;2023-05-29T08:59:25;6.07;;;3.40;;
33266;SDS011;19638;49.080;11.896;2023-05-29T09:03:35;5.22;;;3.38;;
33266;SDS011;19638;49.080;11.896;2023-05-29T09:07:44;4.45;;;3.17;;
33266;SDS011;19638;49.080;11.896;2023-05-29T09:11:51;5.00;;;3.40;;
33266;SDS011;19638;49.080;11.896;2023-05-29T09:15:57;7.57;;;3.53;;
33266;SDS011;19638;49.080;11.896;2023-05-29T09:20:00;4.43;;;3.33;;
33266;SDS011;19638;49.080;11.896;2023-05-29T09:24:08;6.05;;;3.17;;
33266;SDS011;19638;49.080;11.896;2023-05-29T09:28:11;3.95;;;3.40;;
33266;SDS011;19638;49.080;11.896;2023-05-29T09:32:17;4.05;;;3.00;;
33266;SDS011;19638;49.080;11.896;2023-05-29T09:36:21;5.15;;;2.80;;
33266;SDS011;19638;49.080;11.896;2023-05-29T09:40:26;5.85;;;2.85;;
33266;SDS011;19638;49.080;11.896;2023-05-29T09:44:32;4.35;;;2.90;;
33266;SDS011;19638;49.080;11.896;2023-05-29T09:48:35;4.38;;;3.10;;
33266;SDS011;19638;49.080;11.896;2023-05-29T09:52:47;6.80;;;3.38;;
33266;SDS011;19638;49.080;11.896;2023-05-29T09:56:55;6.35;;;3.30;;
33266;SDS011;19638;49.080;11.896;2023-05-29T10:01:02;5.10;;;3.38;;
33266;SDS011;19638;49.080;11.896;2023-05-29T10:05:09;3.75;;;2.75;;
33266;SDS011;19638;49.080;11.896;2023-05-29T10:09:20;5.22;;;3.47;;
33266;SDS011;19638;49.080;11.896;2023-05-29T10:13:26;5.65;;;2.97;;
33266;SDS011;19638;49.080;11.896;2023-05-29T10:17:34;3.22;;;2.92;;
33266;SDS011;19638;49.080;11.896;2023-05-29T10:21:39;5.32;;;3.03;;
33266;SDS011;19638;49.080;11.896;2023-05-29T10:25:43;3.65;;;2.78;;
33266;SDS011;19638;49.080;11.896;2023-05-29T10:29:55;3.55;;;3.00;;
33266;SDS011;19638;49.080;11.896;2023-05-29T10:34:07;3.20;;;2.90;;
33266;SDS011;19638;49.080;11.896;2023-05-29T10:38:20;4.50;;;2.88;;
33266;SDS011;19638;49.080;11.896;2023-05-29T10:42:42;6.70;;;3.95;;
33266;SDS011;19638;49.080;11.896;2023-05-29T10:47:02;5.72;;;3.00;;
33266;SDS011;19638;49.080;11.896;2023-05-29T10:51:08;3.53;;;2.58;;
33266;SDS011;19638;49.080;11.896;2023-05-29T10:55:33;2.83;;;2.63;;
33266;SDS011;19638;49.080;11.896;2023-05-29T10:59:37;4.53;;;3.05;;
33266;SDS011;19638;49.080;11.896;2023-05-29T11:03:44;5.55;;;3.03;;
33266;SDS011;19638;49.080;11.896;2023-05-29T11:07:57;3.58;;;2.83;;
33266;SDS011;19638;49.080;11.896;2023-05-29T11:12:14;3.72;;;2.45;;
33266;SDS011;19638;49.080;11.896;2023-05-29T11:16:37;4.68;;;2.83;;
33266;SDS011;19638;49.080;11.896;2023-05-29T11:20:48;3.88;;;2.90;;
33266;SDS011;19638;49.080;11.896;2023-05-29T11:24:58;5.57;;;2.95;;
33266;SDS011;19638;49.080;11.896;2023-05-29T11:29:04;3.17;;;2.50;;
33266;SDS011;19638;49.080;11.896;2023-05-29T11:33:08;4.30;;;2.83;;
33266;SDS011;19638;49.080;11.896;2023-05-29T11:37:15;4.78;;;3.05;;
33266;SDS011;19638;49.080;11.896;2023-05-29T11:41:19;5.40;;;2.83;;
33266;SDS011;19638;49.080;11.896;2023-05-29T11:45:24;5.90;;;2.53;;
33266;SDS011;19638;49.080;11.896;2023-05-29T11:49:27;2.90;;;2.67;;
33266;SDS011;19638;49.080;11.896;2023-05-29T11:53:33;4.63;;;3.00;;
33266;SDS011;19638;49.080;11.896;2023-05-29T11:57:41;4.63;;;3.00;;
33266;SDS011;19638;49.080;11.896;2023-05-29T12:01:45;6.03;;;2.70;;
33266;SDS011;19638;49.080;11.896;2023-05-29T12:05:52;4.78;;;3.08;;
33266;SDS011;19638;49.080;11.896;2023-05-29T12:10:00;5.18;;;3.00;;
33266;SDS011;19638;49.080;11.896;2023-05-29T12:14:12;3.70;;;2.60;;
33266;SDS011;19638;49.080;11.896;2023-05-29T12:18:16;3.20;;;2.70;;
33266;SDS011;19638;49.080;11.896;2023-05-29T12:22:29;4.22;;;2.50;;
33266;SDS011;19638;49.080;11.896;2023-05-29T12:26:41;3.47;;;2.70;;
33266;SDS011;19638;49.080;11.896;2023-05-29T12:30:48;3.47;;;2.95;;
33266;SDS011;19638;49.080;11.896;2023-05-29T12:34:54;4.18;;;2.83;;
33266;SDS011;19638;49.080;11.896;2023-05-29T12:39:04;4.00;;;2.25;;
33266;SDS011;19638;49.080;11.896;2023-05-29T12:43:11;3.90;;;2.42;;
33266;SDS011;19638;49.080;11.896;2023-05-29T12:47:14;3.90;;;2.97;;
33266;SDS011;19638;49.080;11.896;2023-05-29T12:51:28;6.95;;;2.72;;
33266;SDS011;19638;49.080;11.896;2023-05-29T12:55:33;4.95;;;2.65;;
33266;SDS011;19638;49.080;11.896;2023-05-29T12:59:40;4.78;;;2.72;;
33266;SDS011;19638;49.080;11.896;2023-05-29T13:03:43;3.47;;;2.60;;
33266;SDS011;19638;49.080;11.896;2023-05-29T13:07:47;6.68;;;2.90;;
33266;SDS011;19638;49.080;11.896;2023-05-29T13:11:53;3.13;;;2.78;;
33266;SDS011;19638;49.080;11.896;2023-05-29T13:15:59;3.08;;;2.47;;
33266;SDS011;19638;49.080;11.896;2023-05-29T13:20:03;4.10;;;2.65;;
33266;SDS011;19638;49.080;11.896;2023-05-29T13:24:09;4.15;;;2.70;;
33266;SDS011;19638;49.080;11.896;2023-05-29T13:28:13;4.63;;;2.70;;
33266;SDS011;19638;49.080;11.896;2023-05-29T13:32:18;12.73;;;2.90;;
33266;SDS011;19638;49.080;11.896;2023-05-29T13:36:21;7.18;;;2.50;;
33266;SDS011;19638;49.080;11.896;2023-05-29T13:40:27;2.67;;;2.33;;
33266;SDS011;19638;49.080;11.896;2023-05-29T13:44:32;7.70;;;3.58;;
33266;SDS011;19638;49.080;11.896;2023-05-29T13:48:45;5.13;;;2.47;;
33266;SDS011;19638;49.080;11.896;2023-05-29T13:52:51;3.28;;;2.33;;
33266;SDS011;19638;49.080;11.896;2023-05-29T13:56:55;2.72;;;2.50;;
33266;SDS011;19638;49.080;11.896;2023-05-29T14:01:03;3.42;;;2.72;;
33266;SDS011;19638;49.080;11.896;2023-05-29T14:05:12;3.80;;;2.53;;
33266;SDS011;19638;49.080;11.896;2023-05-29T14:09:15;4.15;;;2.75;;
33266;SDS011;19638;49.080;11.896;2023-05-29T14:13:24;2.33;;;2.13;;
33266;SDS011;19638;49.080;11.896;2023-05-29T14:17:30;2.70;;;2.50;;
33266;SDS011;19638;49.080;11.896;2023-05-29T14:21:36;5.88;;;2.47;;
33266;SDS011;19638;49.080;11.896;2023-05-29T14:25:39;2.95;;;2.60;;
33266;SDS011;19638;49.080;11.896;2023-05-29T14:29:49;6.30;;;2.40;;
33266;SDS011;19638;49.080;11.896;2023-05-29T14:33:56;2.83;;;2.55;;
33266;SDS011;19638;49.080;11.896;2023-05-29T14:38:03;3.45;;;2.33;;
33266;SDS011;19638;49.080;11.896;2023-05-29T14:42:07;5.88;;;2.55;;
33266;SDS011;19638;49.080;11.896;2023-05-29T14:46:12;3.55;;;2.30;;
33266;SDS011;19638;49.080;11.896;2023-05-29T14:50:19;2.90;;;2.60;;
33266;SDS011;19638;49.080;11.896;2023-05-29T14:54:27;3.33;;;2.15;;
33266;SDS011;19638;49.080;11.896;2023-05-29T14:58:31;3.92;;;2.67;;
33266;SDS011;19638;49.080;11.896;2023-05-29T15:02:36;3.58;;;2.53;;
33266;SDS011;19638;49.080;11.896;2023-05-29T15:06:41;4.45;;;2.72;;
33266;SDS011;19638;49.080;11.896;2023-05-29T15:10:57;4.57;;;2.50;;
33266;SDS011;19638;49.080;11.896;2023-05-29T15:15:01;5.70;;;2.97;;
33266;SDS011;19638;49.080;11.896;2023-05-29T15:19:05;2.83;;;2.63;;
33266;SDS011;19638;49.080;11.896;2023-05-29T15:23:08;3.95;;;2.22;;
33266;SDS011;19638;49.080;11.896;2023-05-29T15:27:13;4.72;;;2.50;;
33266;SDS011;19638;49.080;11.896;2023-05-29T15:31:18;4.82;;;2.45;;
33266;SDS011;19638;49.080;11.896;2023-05-29T15:35:24;6.10;;;2.80;;
33266;SDS011;19638;49.080;11.896;2023-05-29T15:39:28;3.38;;;2.50;;
33266;SDS011;19638;49.080;11.896;2023-05-29T15:43:35;3.15;;;2.75;;
33266;SDS011;19638;49.080;11.896;2023-05-29T15:47:40;3.15;;;2.80;;
33266;SDS011;19638;49.080;11.896;2023-05-29T15:51:51;5.70;;;2.78;;
33266;SDS011;19638;49.080;11.896;2023-05-29T15:55:57;4.40;;;2.95;;
33266;SDS011;19638;49.080;11.896;2023-05-29T16:00:05;3.28;;;2.70;;
33266;SDS011;19638;49.080;11.896;2023-05-29T16:04:13;3.60;;;2.90;;
33266;SDS011;19638;49.080;11.896;2023-05-29T16:08:16;3.90;;;3.38;;
33266;SDS011;19638;49.080;11.896;2023-05-29T16:12:25;2.97;;;2.78;;
33266;SDS011;19638;49.080;11.896;2023-05-29T16:16:31;3.70;;;3.25;;
33266;SDS011;19638;49.080;11.896;2023-05-29T16:20:35;7.38;;;2.92;;
33266;SDS011;19638;49.080;11.896;2023-05-29T16:24:42;7.85;;;3.35;;
33266;SDS011;19638;49.080;11.896;2023-05-29T16:28:46;4.28;;;3.03;;
33266;SDS011;19638;49.080;11.896;2023-05-29T16:32:55;5.20;;;3.15;;
33266;SDS011;19638;49.080;11.896;2023-05-29T16:36:59;3.72;;;3.33;;
33266;SDS011;19638;49.080;11.896;2023-05-29T16:41:02;7.97;;;3.28;;
33266;SDS011;19638;49.080;11.896;2023-05-29T16:45:06;5.55;;;3.30;;
33266;SDS011;19638;49.080;11.896;2023-05-29T16:49:12;3.83;;;3.35;;
33266;SDS011;19638;49.080;11.896;2023-05-29T16:53:17;4.72;;;3.30;;
33266;SDS011;19638;49.080;11.896;2023-05-29T16:57:21;5.22;;;3.35;;
33266;SDS011;19638;49.080;11.896;2023-05-29T17:01:24;4.35;;;3.15;;
33266;SDS011;19638;49.080;11.896;2023-05-29T17:07:41;3.97;;;3.47;;
33266;SDS011;19638;49.080;11.896;2023-05-29T17:11:44;4.45;;;3.45;;
33266;SDS011;19638;49.080;11.896;2023-05-29T17:15:50;4.53;;;3.10;;
33266;SDS011;19638;49.080;11.896;2023-05-29T17:19:53;3.60;;;3.20;;
33266;SDS011;19638;49.080;11.896;2023-05-29T17:23:58;6.45;;;2.70;;
33266;SDS011;19638;49.080;11.896;2023-05-29T17:28:01;4.75;;;3.40;;
33266;SDS011;19638;49.080;11.896;2023-05-29T17:32:07;3.90;;;3.20;;
33266;SDS011;19638;49.080;11.896;2023-05-29T17:36:13;3.50;;;3.20;;
33266;SDS011;19638;49.080;11.896;2023-05-29T17:40:21;3.35;;;3.05;;
33266;SDS011;19638;49.080;11.896;2023-05-29T17:44:24;4.60;;;3.28;;
33266;SDS011;19638;49.080;11.896;2023-05-29T17:48:31;6.53;;;3.58;;
33266;SDS011;19638;49.080;11.896;2023-05-29T17:52:38;4.75;;;3.33;;
33266;SDS011;19638;49.080;11.896;2023-05-29T17:56:43;3.38;;;3.00;;
33266;SDS011;19638;49.080;11.896;2023-05-29T18:00:46;7.53;;;3.33;;
33266;SDS011;19638;49.080;11.896;2023-05-29T18:04:51;4.25;;;3.38;;
33266;SDS011;19638;49.080;11.896;2023-05-29T18:08:55;7.57;;;3.55;;
33266;SDS011;19638;49.080;11.896;2023-05-29T18:13:04;4.03;;;3.03;;
33266;SDS011;19638;49.080;11.896;2023-05-29T18:17:11;8.20;;;3.22;;
33266;SDS011;19638;49.080;11.896;2023-05-29T18:21:14;5.95;;;3.58;;
33266;SDS011;19638;49.080;11.896;2023-05-29T18:25:18;5.90;;;3.03;;
33266;SDS011;19638;49.080;11.896;2023-05-29T18:29:23;3.30;;;2.92;;
33266;SDS011;19638;49.080;11.896;2023-05-29T18:33:26;3.92;;;3.35;;
33266;SDS011;19638;49.080;11.896;2023-05-29T18:37:30;4.30;;;3.28;;
33266;SDS011;19638;49.080;11.896;2023-05-29T18:41:34;6.47;;;3.47;;
33266;SDS011;19638;49.080;11.896;2023-05-29T18:45:39;8.13;;;3.35;;
33266;SDS011;19638;49.080;11.896;2023-05-29T18:49:42;6.28;;;3.08;;
33266;SDS011;19638;49.080;11.896;2023-05-29T18:53:45;4.50;;;3.03;;
33266;SDS011;19638;49.080;11.896;2023-05-29T18:57:49;5.85;;;2.95;;
33266;SDS011;19638;49.080;11.896;2023-05-29T19:01:54;4.90;;;3.33;;
33266;SDS011;19638;49.080;11.896;2023-05-29T19:05:58;5.28;;;3.10;;
33266;SDS011;19638;49.080;11.896;2023-05-29T19:10:05;7.43;;;3.10;;
33266;SDS011;19638;49.080;11.896;2023-05-29T19:14:11;7.57;;;3.10;;
33266;SDS011;19638;49.080;11.896;2023-05-29T19:18:19;4.57;;;2.90;;
33266;SDS011;19638;49.080;11.896;2023-05-29T19:22:28;5.75;;;2.78;;
33266;SDS011;19638;49.080;11.896;2023-05-29T19:26:33;3.30;;;2.63;;
33266;SDS011;19638;49.080;11.896;2023-05-29T19:30:37;4.15;;;3.30;;
33266;SDS011;19638;49.080;11.896;2023-05-29T19:34:42;4.93;;;2.80;;
33266;SDS011;19638;49.080;11.896;2023-05-29T19:38:46;5.90;;;2.88;;
33266;SDS011;19638;49.080;11.896;2023-05-29T19:42:49;10.57;;;4.05;;
33266;SDS011;19638;49.080;11.896;2023-05-29T19:46:56;5.95;;;2.83;;
33266;SDS011;19638;49.080;11.896;2023-05-29T19:51:02;5.30;;;3.13;;
33266;SDS011;19638;49.080;11.896;2023-05-29T19:55:09;4.60;;;3.03;;
33266;SDS011;19638;49.080;11.896;2023-05-29T19:59:12;6.57;;;3.50;;
33266;SDS011;19638;49.080;11.896;2023-05-29T20:03:18;4.70;;;3.15;;
33266;SDS011;19638;49.080;11.896;2023-05-29T20:07:27;5.28;;;3.42;;
33266;SDS011;19638;49.080;11.896;2023-05-29T20:11:34;4.88;;;2.92;;
33266;SDS011;19638;49.080;11.896;2023-05-29T20:15:42;6.97;;;3.28;;
33266;SDS011;19638;49.080;11.896;2023-05-29T20:19:46;5.95;;;2.80;;
33266;SDS011;19638;49.080;11.896;2023-05-29T20:23:52;6.45;;;3.13;;
33266;SDS011;19638;49.080;11.896;2023-05-29T20:27:57;5.05;;;2.63;;
33266;SDS011;19638;49.080;11.896;2023-05-29T20:32:00;6.65;;;3.50;;
33266;SDS011;19638;49.080;11.896;2023-05-29T20:36:06;5.22;;;3.30;;
33266;SDS011;19638;49.080;11.896;2023-05-29T20:40:14;5.55;;;2.90;;
33266;SDS011;19638;49.080;11.896;2023-05-29T20:44:18;6.72;;;3.20;;
33266;SDS011;19638;49.080;11.896;2023-05-29T20:48:31;6.35;;;3.13;;
33266;SDS011;19638;49.080;11.896;2023-05-29T20:52:34;4.32;;;3.00;;
33266;SDS011;19638;49.080;11.896;2023-05-29T20:56:40;10.00;;;3.83;;
33266;SDS011;19638;49.080;11.896;2023-05-29T21:00:45;3.65;;;2.80;;
33266;SDS011;19638;49.080;11.896;2023-05-29T21:04:52;6.15;;;3.38;;
33266;SDS011;19638;49.080;11.896;2023-05-29T21:08:58;3.42;;;3.13;;
33266;SDS011;19638;49.080;11.896;2023-05-29T21:13:07;3.25;;;2.92;;
33266;SDS011;19638;49.080;11.896;2023-05-29T21:17:22;4.65;;;3.45;;
33266;SDS011;19638;49.080;11.896;2023-05-29T21:21:29;5.72;;;2.85;;
33266;SDS011;19638;49.080;11.896;2023-05-29T21:25:41;8.30;;;3.40;;
33266;SDS011;19638;49.080;11.896;2023-05-29T21:29:48;5.32;;;3.08;;
33266;SDS011;19638;49.080;11.896;2023-05-29T21:33:54;7.20;;;3.65;;
33266;SDS011;19638;49.080;11.896;2023-05-29T21:38:01;3.72;;;3.13;;
33266;SDS011;19638;49.080;11.896;2023-05-29T21:42:05;5.35;;;2.80;;
33266;SDS011;19638;49.080;11.896;2023-05-29T21:46:14;9.23;;;3.28;;
33266;SDS011;19638;49.080;11.896;2023-05-29T21:50:20;6.93;;;3.08;;
33266;SDS011;19638;49.080;11.896;2023-05-29T21:54:27;6.53;;;3.53;;
33266;SDS011;19638;49.080;11.896;2023-05-29T21:58:31;5.15;;;2.95;;
33266;SDS011;19638;49.080;11.896;2023-05-29T22:02:37;8.13;;;3.67;;
33266;SDS011;19638;49.080;11.896;2023-05-29T22:06:40;4.28;;;3.20;;
33266;SDS011;19638;49.080;11.896;2023-05-29T22:10:46;4.13;;;3.22;;
33266;SDS011;19638;49.080;11.896;2023-05-29T22:14:52;5.50;;;3.05;;
33266;SDS011;19638;49.080;11.896;2023-05-29T22:19:00;5.65;;;3.17;;
33266;SDS011;19638;49.080;11.896;2023-05-29T22:23:07;3.60;;;3.30;;
33266;SDS011;19638;49.080;11.896;2023-05-29T22:27:18;3.47;;;3.05;;
33266;SDS011;19638;49.080;11.896;2023-05-29T22:31:23;4.53;;;2.88;;
33266;SDS011;19638;49.080;11.896;2023-05-29T22:35:30;5.55;;;3.22;;
33266;SDS011;19638;49.080;11.896;2023-05-29T22:39:34;8.15;;;3.42;;
33266;SDS011;19638;49.080;11.896;2023-05-29T22:43:44;8.32;;;3.60;;
33266;SDS011;19638;49.080;11.896;2023-05-29T22:47:48;4.82;;;3.10;;
33266;SDS011;19638;49.080;11.896;2023-05-29T22:51:54;4.28;;;3.55;;
33266;SDS011;19638;49.080;11.896;2023-05-29T22:56:01;8.00;;;3.50;;
33266;SDS011;19638;49.080;11.896;2023-05-29T23:00:05;7.00;;;3.38;;
33266;SDS011;19638;49.080;11.896;2023-05-29T23:04:15;7.60;;;3.78;;
33266;SDS011;19638;49.080;11.896;2023-05-29T23:08:22;5.72;;;3.60;;
33266;SDS011;19638;49.080;11.896;2023-05-29T23:12:28;5.45;;;3.33;;
33266;SDS011;19638;49.080;11.896;2023-05-29T23:16:36;4.55;;;3.03;;
33266;SDS011;19638;49.080;11.896;2023-05-29T23:20:39;4.38;;;3.50;;
33266;SDS011;19638;49.080;11.896;2023-05-29T23:24:47;5.20;;;3.42;;
33266;SDS011;19638;49.080;11.896;2023-05-29T23:28:52;5.13;;;3.33;;
33266;SDS011;19638;49.080;11.896;2023-05-29T23:32:55;9.07;;;3.60;;
33266;SDS011;19638;49.080;11.896;2023-05-29T23:36:58;6.97;;;3.22;;
33266;SDS011;19638;49.080;11.896;2023-05-29T23:41:06;5.38;;;3.25;;
33266;SDS011;19638;49.080;11.896;2023-05-29T23:45:09;5.25;;;3.88;;
33266;SDS011;19638;49.080;11.896;2023-05-29T23:49:13;5.40;;;3.55;;
33266;SDS011;19638;49.080;11.896;2023-05-29T23:53:16;4.95;;;3.65;;
33266;SDS011;19638;49.080;11.896;2023-05-29T23:57:21;4.18;;;3.25;;
